Time;durP1;ratioP1;P1;durP2;ratioP2;P2;SDS_P1;SDS_P2;PMS_P1;PMS_P2;Temp;Humidity;BMP_temperature;BMP_pressure;BME280_temperature;BME280_humidity;BME280_pressure;Samples;Min_cycle;Max_cycle;Signal;HPM_P1;HPM_P2
2023/12/22 00:00:18;;;;;;;2.07;1.10;;;8.30;99.90;;;;;;5074450;28;20608;-70
2023/12/22 00:02:43;;;;;;;2.63;1.13;;;8.30;99.90;;;;;;5074671;28;20174;-71
2023/12/22 00:05:09;;;;;;;2.43;1.20;;;8.30;99.90;;;;;;5074353;28;20248;-70
2023/12/22 00:07:34;;;;;;;3.30;1.20;;;8.30;99.90;;;;;;5073943;28;20177;-70
2023/12/22 00:10:00;;;;;;;4.60;1.80;;;8.40;99.90;;;;;;5090274;28;20161;-71
2023/12/22 00:12:25;;;;;;;2.70;1.60;;;8.50;99.90;;;;;;5074137;28;20180;-71
2023/12/22 00:14:51;;;;;;;4.53;2.07;;;8.60;99.90;;;;;;5073874;28;20170;-70
2023/12/22 00:17:16;;;;;;;5.10;2.23;;;8.60;99.90;;;;;;5073818;28;20291;-71
2023/12/22 00:19:42;;;;;;;4.07;1.90;;;8.70;99.90;;;;;;5088213;28;20196;-71
2023/12/22 00:22:07;;;;;;;5.73;1.80;;;8.80;99.90;;;;;;5094574;28;20172;-71
2023/12/22 00:24:33;;;;;;;3.90;2.00;;;8.80;99.90;;;;;;5093901;28;20173;-71
2023/12/22 00:26:58;;;;;;;4.50;1.90;;;8.80;99.90;;;;;;5093826;28;20193;-71
2023/12/22 00:29:24;;;;;;;4.53;2.00;;;8.90;99.90;;;;;;5081785;28;20187;-71
2023/12/22 00:31:50;;;;;;;10.40;2.23;;;8.80;99.90;;;;;;5073600;28;20244;-72
2023/12/22 00:34:15;;;;;;;6.07;2.40;;;8.90;99.90;;;;;;5055665;28;20919;-71
2023/12/22 00:36:41;;;;;;;5.93;1.63;;;8.90;99.90;;;;;;5074023;28;20609;-71
2023/12/22 00:39:07;;;;;;;6.47;2.07;;;9.00;99.90;;;;;;5082688;28;20197;-71
2023/12/22 00:41:33;;;;;;;4.10;2.20;;;9.00;99.90;;;;;;5094208;28;20166;-71
2023/12/22 00:43:58;;;;;;;8.20;2.30;;;9.10;99.90;;;;;;5093676;28;20754;-70
2023/12/22 00:46:24;;;;;;;9.57;2.27;;;9.00;99.90;;;;;;5075345;28;20203;-72
2023/12/22 00:48:49;;;;;;;5.27;1.80;;;8.90;99.90;;;;;;5092956;28;20193;-71
2023/12/22 00:51:16;;;;;;;2.87;1.97;;;8.70;99.90;;;;;;5093539;28;20566;-71
2023/12/22 00:53:42;;;;;;;4.63;1.50;;;8.50;99.90;;;;;;5093543;28;20237;-71
2023/12/22 00:56:07;;;;;;;3.10;1.50;;;8.30;99.90;;;;;;5093747;28;20413;-72
2023/12/22 00:58:33;;;;;;;6.70;2.97;;;8.30;99.90;;;;;;5093315;28;20794;-70
2023/12/22 01:00:59;;;;;;;5.50;1.60;;;8.30;99.90;;;;;;5089855;28;20184;-70
2023/12/22 01:03:24;;;;;;;6.33;2.07;;;8.20;99.90;;;;;;5093564;28;20565;-70
2023/12/22 01:05:50;;;;;;;7.70;1.97;;;8.30;99.90;;;;;;5093639;28;20198;-70
2023/12/22 01:08:15;;;;;;;3.93;1.93;;;8.30;99.90;;;;;;5075325;28;20196;-71
2023/12/22 01:10:41;;;;;;;4.33;2.00;;;8.40;99.90;;;;;;5093425;28;20195;-71
2023/12/22 01:13:07;;;;;;;7.63;1.73;;;8.40;99.90;;;;;;5075464;28;20306;-71
2023/12/22 01:15:32;;;;;;;4.40;1.60;;;8.40;99.90;;;;;;5093635;28;20177;-71
2023/12/22 01:17:58;;;;;;;5.37;1.80;;;8.50;99.90;;;;;;5093541;28;20201;-71
2023/12/22 01:20:23;;;;;;;5.10;1.70;;;8.50;99.90;;;;;;5073936;28;20202;-70
2023/12/22 01:22:49;;;;;;;5.30;2.10;;;8.40;99.90;;;;;;5073502;28;20177;-70
2023/12/22 01:25:15;;;;;;;6.13;2.73;;;8.50;99.90;;;;;;5073064;28;20252;-70
2023/12/22 01:27:40;;;;;;;4.00;1.70;;;8.50;99.90;;;;;;5054763;28;20241;-71
2023/12/22 01:30:06;;;;;;;4.40;2.23;;;8.40;99.90;;;;;;5089672;28;20697;-70
2023/12/22 01:32:35;;;;;;;4.83;1.67;;;8.50;99.90;;;;;;5097634;28;20601;-72
2023/12/22 01:35:06;;;;;;;2.60;1.07;;;8.50;99.90;;;;;;5081649;28;20411;-71
2023/12/22 01:37:32;;;;;;;4.57;1.93;;;8.40;99.90;;;;;;5100384;28;20477;-69
2023/12/22 01:39:58;;;;;;;3.27;1.70;;;8.40;99.90;;;;;;5084150;28;20435;-71
2023/12/22 01:42:23;;;;;;;4.17;1.77;;;8.40;99.90;;;;;;5079484;28;20624;-71
2023/12/22 01:44:49;;;;;;;13.87;2.73;;;8.40;99.90;;;;;;5079314;28;20165;-72
2023/12/22 01:47:14;;;;;;;6.53;1.43;;;8.50;99.90;;;;;;5079315;28;20174;-71
2023/12/22 01:49:40;;;;;;;4.40;1.40;;;8.50;99.90;;;;;;5092173;28;20563;-71
2023/12/22 01:52:07;;;;;;;2.10;1.33;;;8.50;99.90;;;;;;5099817;28;20161;-72
2023/12/22 01:54:32;;;;;;;2.20;1.10;;;8.60;99.90;;;;;;5100144;28;20669;-72
2023/12/22 01:56:58;;;;;;;1.97;1.33;;;8.70;99.90;;;;;;5099845;28;20403;-72
2023/12/22 01:59:23;;;;;;;2.93;1.27;;;8.70;99.90;;;;;;5088953;28;20210;-71
2023/12/22 02:01:49;;;;;;;3.83;1.17;;;8.70;99.90;;;;;;5079240;28;20509;-71
2023/12/22 02:04:15;;;;;;;5.17;1.37;;;8.70;99.90;;;;;;5079329;28;20210;-71
2023/12/22 02:06:42;;;;;;;2.53;1.10;;;8.70;99.90;;;;;;5095481;28;20241;-71
2023/12/22 02:09:08;;;;;;;3.73;0.97;;;8.70;99.90;;;;;;5091232;28;20517;-71
2023/12/22 02:11:33;;;;;;;2.70;1.10;;;8.70;99.90;;;;;;5061059;28;20500;-72
2023/12/22 02:13:59;;;;;;;1.70;0.73;;;8.70;99.90;;;;;;5079121;28;20170;-71
2023/12/22 02:16:42;;;;;;;2.40;1.10;;;8.60;99.90;;;;;;5079403;28;20167;-71
2023/12/22 02:19:35;;;;;;;1.63;1.00;;;8.60;99.90;;;;;;5086792;28;20208;-72
2023/12/22 02:22:06;;;;;;;1.97;1.17;;;8.60;99.90;;;;;;5081031;28;20408;-72
2023/12/22 02:24:31;;;;;;;4.17;1.30;;;8.60;99.90;;;;;;5120392;22;20849;-71
2023/12/22 02:27:24;;;;;;;3.30;1.17;;;8.60;99.90;;;;;;5098865;28;20442;-72
2023/12/22 02:29:55;;;;;;;1.93;1.00;;;8.70;99.90;;;;;;5073528;28;20184;-71
2023/12/22 02:32:34;;;;;;;1.30;0.87;;;8.60;99.90;;;;;;5098859;28;20467;-71
2023/12/22 02:35:08;;;;;;;1.73;1.00;;;8.60;99.90;;;;;;5097231;28;20433;-71
2023/12/22 02:37:36;;;;;;;2.43;1.40;;;8.60;99.90;;;;;;5097412;28;20456;-71
2023/12/22 02:40:02;;;;;;;7.10;1.87;;;8.70;99.90;;;;;;5098422;28;20402;-71
2023/12/22 02:42:30;;;;;;;2.07;0.90;;;8.70;99.90;;;;;;5098315;28;20406;-71
2023/12/22 02:44:58;;;;;;;3.23;1.40;;;8.70;99.90;;;;;;5093701;28;20414;-71
2023/12/22 02:47:24;;;;;;;4.67;1.60;;;8.70;99.90;;;;;;5095471;28;20495;-71
2023/12/22 02:49:50;;;;;;;3.70;1.50;;;8.70;99.90;;;;;;5081919;28;20441;-71
2023/12/22 02:52:15;;;;;;;6.60;1.83;;;8.70;99.90;;;;;;5073683;28;20184;-71
2023/12/22 02:54:41;;;;;;;2.13;1.47;;;8.70;99.90;;;;;;5074871;28;20195;-71
2023/12/22 02:57:08;;;;;;;2.07;1.20;;;8.70;99.90;;;;;;5075049;28;20244;-71
2023/12/22 02:59:33;;;;;;;3.63;1.60;;;8.80;99.90;;;;;;5084559;28;20202;-71
2023/12/22 03:01:59;;;;;;;4.00;1.80;;;8.80;99.90;;;;;;5095080;28;20933;-70
2023/12/22 03:04:24;;;;;;;2.80;1.27;;;8.80;99.90;;;;;;5094610;28;20637;-70
2023/12/22 03:06:50;;;;;;;3.40;1.73;;;8.80;99.90;;;;;;5095158;28;20182;-70
2023/12/22 03:09:15;;;;;;;4.13;1.23;;;8.90;99.90;;;;;;5095275;28;20163;-70
2023/12/22 03:11:41;;;;;;;5.23;1.87;;;8.90;99.90;;;;;;5094903;28;20170;-70
2023/12/22 03:14:06;;;;;;;3.70;1.57;;;8.90;99.90;;;;;;5094952;28;20194;-71
2023/12/22 03:16:32;;;;;;;3.27;1.10;;;8.90;99.90;;;;;;5094855;28;20235;-71
2023/12/22 03:18:57;;;;;;;4.67;2.00;;;8.90;99.90;;;;;;5094665;28;20178;-71
2023/12/22 03:21:23;;;;;;;3.93;1.53;;;8.90;99.90;;;;;;5094610;28;20593;-71
2023/12/22 03:23:48;;;;;;;3.53;1.37;;;8.90;99.90;;;;;;5094530;28;20244;-71
2023/12/22 03:26:14;;;;;;;3.00;1.30;;;8.90;99.90;;;;;;5094674;28;20197;-71
2023/12/22 03:28:39;;;;;;;5.37;1.50;;;9.00;99.90;;;;;;5094686;28;20177;-71
2023/12/22 03:31:06;;;;;;;4.03;1.70;;;9.00;99.90;;;;;;5094553;28;20219;-71
2023/12/22 03:33:32;;;;;;;3.80;1.53;;;9.00;99.90;;;;;;5094428;28;20633;-71
2023/12/22 03:35:58;;;;;;;3.00;1.87;;;9.10;99.90;;;;;;5094444;28;20419;-70
2023/12/22 03:38:23;;;;;;;2.93;1.20;;;9.00;99.90;;;;;;5076118;28;20586;-71
2023/12/22 03:40:49;;;;;;;3.80;1.40;;;9.10;99.90;;;;;;5094576;28;20599;-71
2023/12/22 03:43:14;;;;;;;2.80;1.63;;;9.10;99.90;;;;;;5094887;28;20190;-70
2023/12/22 03:45:40;;;;;;;5.20;1.10;;;9.10;99.90;;;;;;5093896;28;20194;-70
2023/12/22 03:48:06;;;;;;;3.93;1.23;;;9.10;99.90;;;;;;5094254;28;20186;-72
2023/12/22 03:50:31;;;;;;;2.20;1.20;;;9.00;99.90;;;;;;5094019;28;20519;-71
2023/12/22 03:52:57;;;;;;;3.90;1.40;;;9.10;99.90;;;;;;5094180;28;20400;-72
2023/12/22 03:55:22;;;;;;;2.80;1.30;;;9.10;99.90;;;;;;5075716;28;20333;-72
2023/12/22 03:57:48;;;;;;;5.97;2.03;;;9.00;99.90;;;;;;5094393;28;20162;-71
2023/12/22 04:00:16;;;;;;;5.00;1.63;;;8.80;99.90;;;;;;5077566;28;20166;-71
2023/12/22 04:02:41;;;;;;;4.23;1.50;;;8.60;99.90;;;;;;5094104;28;20190;-70
2023/12/22 04:05:07;;;;;;;3.17;1.77;;;8.40;99.90;;;;;;5075824;28;20517;-71
2023/12/22 04:07:32;;;;;;;4.47;2.00;;;8.20;99.90;;;;;;5094124;28;20665;-71
2023/12/22 04:09:59;;;;;;;5.17;2.17;;;8.20;99.90;;;;;;5093819;28;20227;-71
2023/12/22 04:12:24;;;;;;;5.30;1.80;;;8.30;99.90;;;;;;5094286;28;20246;-71
2023/12/22 04:14:50;;;;;;;2.70;1.80;;;8.20;99.90;;;;;;5092282;28;20438;-71
2023/12/22 04:17:15;;;;;;;4.67;1.63;;;8.20;99.90;;;;;;5093776;28;20684;-71
2023/12/22 04:19:41;;;;;;;7.13;1.70;;;8.10;99.90;;;;;;5093731;28;20735;-71
2023/12/22 04:22:06;;;;;;;5.00;1.67;;;8.10;99.90;;;;;;5093838;28;20312;-71
2023/12/22 04:24:32;;;;;;;5.67;1.83;;;8.10;99.90;;;;;;5075189;28;20643;-71
2023/12/22 04:26:57;;;;;;;4.17;1.60;;;8.00;99.90;;;;;;5075331;28;20674;-71
2023/12/22 04:29:23;;;;;;;6.50;2.03;;;8.00;99.90;;;;;;5093472;28;20203;-71
2023/12/22 04:31:49;;;;;;;4.30;2.20;;;8.00;99.90;;;;;;5093828;28;20228;-70
2023/12/22 04:34:15;;;;;;;5.80;1.80;;;8.00;99.90;;;;;;5092005;28;20243;-70
2023/12/22 04:36:41;;;;;;;5.00;1.80;;;8.10;99.90;;;;;;5092726;28;20278;-70
2023/12/22 04:39:07;;;;;;;8.30;1.90;;;8.20;99.90;;;;;;5071309;28;20414;-70
2023/12/22 04:41:32;;;;;;;4.43;1.80;;;8.20;99.90;;;;;;5072659;28;20422;-71
2023/12/22 04:43:58;;;;;;;5.63;1.70;;;8.20;99.90;;;;;;5072594;28;20705;-70
2023/12/22 04:46:23;;;;;;;4.53;1.80;;;8.30;99.90;;;;;;5072590;28;20267;-71
2023/12/22 04:48:49;;;;;;;3.50;1.40;;;8.40;99.90;;;;;;5075554;28;20184;-71
2023/12/22 04:51:15;;;;;;;3.87;1.40;;;8.40;99.90;;;;;;5083410;28;20178;-70
2023/12/22 04:53:40;;;;;;;3.80;1.37;;;8.50;99.90;;;;;;5083414;28;20187;-73
2023/12/22 04:56:06;;;;;;;2.27;1.00;;;8.50;99.90;;;;;;5083450;28;20193;-71
2023/12/22 04:58:32;;;;;;;3.77;1.20;;;8.60;99.90;;;;;;5065301;28;20183;-71
2023/12/22 05:00:57;;;;;;;2.33;1.40;;;8.60;99.90;;;;;;5083475;28;20178;-71
2023/12/22 05:03:23;;;;;;;2.00;1.10;;;8.70;99.90;;;;;;5081885;28;20195;-70
2023/12/22 05:05:48;;;;;;;2.00;1.20;;;8.70;99.90;;;;;;5082958;28;20200;-73
2023/12/22 05:08:15;;;;;;;2.80;1.17;;;8.70;99.90;;;;;;5082492;28;20173;-72
2023/12/22 05:10:41;;;;;;;3.57;1.40;;;8.70;99.90;;;;;;5083313;28;20642;-72
2023/12/22 05:13:06;;;;;;;2.20;1.00;;;8.80;99.90;;;;;;5082881;28;20431;-71
2023/12/22 05:15:32;;;;;;;7.30;1.60;;;8.80;99.90;;;;;;5081686;28;20690;-72
2023/12/22 05:17:57;;;;;;;6.80;1.90;;;8.80;99.90;;;;;;5083218;28;20237;-70
2023/12/22 05:20:23;;;;;;;6.07;1.53;;;8.80;99.90;;;;;;5083168;28;20184;-71
2023/12/22 05:22:48;;;;;;;5.27;2.03;;;8.80;99.90;;;;;;5083091;28;20592;-71
2023/12/22 05:25:14;;;;;;;19.83;11.33;;;8.80;99.90;;;;;;5082767;28;20871;-71
2023/12/22 05:27:41;;;;;;;19.60;10.70;;;8.80;99.90;;;;;;5083366;28;20176;-71
2023/12/22 05:30:07;;;;;;;6.30;4.07;;;8.80;99.90;;;;;;5082786;28;20175;-71
2023/12/22 05:32:33;;;;;;;16.40;12.53;;;8.90;99.90;;;;;;5082872;28;20782;-70
2023/12/22 05:34:58;;;;;;;18.27;12.17;;;8.90;99.90;;;;;;5075316;28;20452;-71
2023/12/22 05:37:24;;;;;;;35.93;14.70;;;8.90;99.90;;;;;;5083248;28;20208;-72
2023/12/22 05:39:49;;;;;;;30.03;19.00;;;8.90;99.90;;;;;;5082606;28;20180;-71
2023/12/22 05:42:15;;;;;;;45.13;26.07;;;8.80;99.90;;;;;;5082994;28;20189;-72
2023/12/22 05:44:40;;;;;;;24.20;13.00;;;8.70;99.90;;;;;;5082647;28;20202;-71
2023/12/22 05:47:07;;;;;;;28.77;17.73;;;8.60;99.90;;;;;;5082725;28;20200;-73
2023/12/22 05:49:32;;;;;;;8.80;3.70;;;8.60;99.90;;;;;;5082427;28;20482;-71
2023/12/22 05:51:58;;;;;;;6.07;3.50;;;8.60;99.90;;;;;;5082921;28;20533;-71
2023/12/22 05:54:25;;;;;;;7.27;3.20;;;8.70;99.90;;;;;;5082807;28;20225;-71
2023/12/22 05:56:51;;;;;;;8.53;3.07;;;8.70;99.90;;;;;;5069005;28;20746;-71
2023/12/22 05:59:17;;;;;;;12.70;4.07;;;8.70;99.90;;;;;;5064706;28;20766;-69
2023/12/22 06:01:43;;;;;;;8.93;4.60;;;8.80;99.90;;;;;;5082851;28;20478;-72
2023/12/22 06:04:08;;;;;;;7.33;3.30;;;8.90;99.90;;;;;;5082735;28;20450;-72
2023/12/22 06:06:36;;;;;;;10.90;2.90;;;8.90;99.90;;;;;;5082961;28;20731;-71
2023/12/22 06:09:01;;;;;;;7.97;2.43;;;9.00;99.90;;;;;;5082670;28;20178;-70
2023/12/22 06:11:27;;;;;;;8.57;2.73;;;9.00;99.90;;;;;;5082847;28;20419;-70
2023/12/22 06:13:52;;;;;;;7.43;3.00;;;9.10;99.90;;;;;;5082781;28;20182;-69
2023/12/22 06:16:18;;;;;;;3.83;2.53;;;9.20;99.90;;;;;;5082159;28;20271;-70
2023/12/22 06:18:44;;;;;;;12.37;3.10;;;9.10;99.90;;;;;;5085112;28;20178;-72
2023/12/22 06:21:10;;;;;;;7.10;3.30;;;9.10;99.90;;;;;;5084542;28;20196;-71
2023/12/22 06:23:36;;;;;;;6.60;2.97;;;9.20;99.90;;;;;;5086578;28;20535;-71
2023/12/22 06:26:07;;;;;;;6.40;3.70;;;9.10;99.90;;;;;;5085956;28;21321;-68
2023/12/22 06:28:33;;;;;;;4.87;2.67;;;9.10;99.90;;;;;;5085543;28;20434;-69
2023/12/22 06:30:58;;;;;;;6.43;2.80;;;9.20;99.90;;;;;;5086695;28;20415;-71
2023/12/22 06:33:24;;;;;;;7.17;2.60;;;9.10;99.90;;;;;;5086487;28;20539;-69
2023/12/22 06:35:53;;;;;;;6.23;2.20;;;9.10;99.90;;;;;;5095527;28;20555;-71
2023/12/22 06:38:19;;;;;;;12.43;3.17;;;9.10;99.90;;;;;;5077726;28;20175;-70
2023/12/22 06:40:46;;;;;;;7.63;3.80;;;9.10;99.90;;;;;;5084873;28;20424;-72
2023/12/22 06:43:12;;;;;;;8.53;2.90;;;9.20;99.90;;;;;;5095771;28;20452;-72
2023/12/22 06:45:39;;;;;;;4.50;2.30;;;9.20;99.90;;;;;;5095617;28;20541;-72
2023/12/22 06:48:05;;;;;;;5.13;2.50;;;9.20;99.90;;;;;;5077585;28;20166;-72
2023/12/22 06:50:31;;;;;;;4.87;2.00;;;9.20;99.90;;;;;;5073835;28;20422;-71
2023/12/22 06:52:57;;;;;;;8.20;2.13;;;9.20;99.90;;;;;;5074209;28;20779;-70
2023/12/22 06:55:23;;;;;;;4.63;2.03;;;9.20;99.90;;;;;;5073738;28;20194;-70
2023/12/22 06:57:49;;;;;;;8.20;2.30;;;9.20;99.90;;;;;;5073938;28;20426;-70
2023/12/22 07:00:15;;;;;;;6.70;1.83;;;9.20;99.90;;;;;;5089609;28;20258;-70
2023/12/22 07:02:41;;;;;;;3.93;2.10;;;9.20;99.90;;;;;;5095565;28;20259;-70
2023/12/22 07:05:09;;;;;;;5.33;2.10;;;9.20;99.90;;;;;;5095570;28;20837;-72
2023/12/22 07:07:35;;;;;;;6.00;1.87;;;9.20;99.90;;;;;;5095001;28;20215;-71
2023/12/22 07:10:01;;;;;;;5.80;2.50;;;9.20;99.90;;;;;;5095223;28;20506;-72
2023/12/22 07:12:27;;;;;;;5.43;2.20;;;9.20;99.90;;;;;;5095137;28;20411;-72
2023/12/22 07:14:53;;;;;;;4.67;2.03;;;9.10;99.90;;;;;;5094818;28;20273;-71
2023/12/22 07:17:19;;;;;;;7.43;1.93;;;9.10;99.90;;;;;;5094675;28;20404;-70
2023/12/22 07:19:45;;;;;;;5.53;1.80;;;9.10;99.90;;;;;;5085407;28;20482;-73
2023/12/22 07:22:10;;;;;;;5.10;1.97;;;9.20;99.90;;;;;;5085120;28;20183;-70
2023/12/22 07:24:36;;;;;;;3.63;2.07;;;9.20;99.90;;;;;;5084947;28;20250;-71
2023/12/22 07:27:02;;;;;;;6.83;2.47;;;9.10;99.90;;;;;;5074627;28;20209;-71
2023/12/22 07:29:27;;;;;;;4.70;1.80;;;9.10;99.90;;;;;;5084733;28;20174;-70
2023/12/22 07:31:53;;;;;;;4.20;1.97;;;9.10;99.90;;;;;;5085066;28;20252;-70
2023/12/22 07:34:18;;;;;;;6.13;2.37;;;9.00;99.90;;;;;;5084810;28;20208;-71
2023/12/22 07:36:44;;;;;;;3.63;2.17;;;9.00;99.90;;;;;;5084892;28;20628;-69
2023/12/22 07:39:10;;;;;;;5.33;2.10;;;9.00;99.90;;;;;;5084598;28;20187;-69
2023/12/22 07:41:36;;;;;;;6.17;2.37;;;9.00;99.90;;;;;;5084877;28;20195;-70
2023/12/22 07:44:02;;;;;;;7.63;2.53;;;9.00;99.90;;;;;;5084730;28;20452;-69
2023/12/22 07:46:28;;;;;;;4.77;2.07;;;9.00;99.90;;;;;;5084559;28;20413;-71
2023/12/22 07:48:54;;;;;;;4.50;1.60;;;9.00;99.90;;;;;;5084666;28;20554;-69
2023/12/22 07:51:20;;;;;;;5.33;1.57;;;9.00;99.90;;;;;;5085308;28;20420;-70
2023/12/22 07:53:46;;;;;;;7.43;2.50;;;9.00;99.90;;;;;;5085130;28;20814;-70
2023/12/22 07:56:12;;;;;;;5.03;2.10;;;9.00;99.90;;;;;;5085880;28;20411;-70
2023/12/22 07:58:38;;;;;;;5.80;2.10;;;9.00;99.90;;;;;;5085620;28;20866;-71
2023/12/22 08:01:05;;;;;;;5.37;2.50;;;9.00;99.90;;;;;;5084934;28;20203;-70
2023/12/22 08:03:31;;;;;;;3.60;1.27;;;8.90;99.90;;;;;;5085376;28;20177;-69
2023/12/22 08:05:56;;;;;;;2.30;1.67;;;8.90;99.90;;;;;;5085886;28;20802;-71
2023/12/22 08:08:22;;;;;;;5.73;2.27;;;8.80;99.90;;;;;;5086191;28;20174;-70
2023/12/22 08:10:48;;;;;;;4.80;2.20;;;8.80;99.90;;;;;;5084941;28;20237;-70
2023/12/22 08:13:14;;;;;;;3.30;1.93;;;8.70;99.90;;;;;;5081809;28;20307;-71
2023/12/22 08:15:39;;;;;;;6.90;2.53;;;8.70;99.90;;;;;;5084308;28;20518;-71
2023/12/22 08:18:05;;;;;;;8.73;2.23;;;8.80;99.90;;;;;;5084783;28;20641;-71
2023/12/22 08:20:30;;;;;;;6.03;2.60;;;8.70;99.90;;;;;;5084580;28;20185;-71
2023/12/22 08:22:56;;;;;;;3.73;1.53;;;8.70;99.90;;;;;;5084416;28;20186;-71
2023/12/22 08:25:21;;;;;;;8.40;1.83;;;8.60;99.90;;;;;;5083915;28;20227;-70
2023/12/22 08:27:47;;;;;;;4.27;1.77;;;8.50;99.90;;;;;;5069632;28;20182;-71
2023/12/22 08:30:14;;;;;;;7.03;2.40;;;8.40;99.90;;;;;;5084438;28;20256;-72
2023/12/22 08:32:39;;;;;;;7.10;2.00;;;8.30;99.90;;;;;;5084383;28;20185;-70
2023/12/22 08:35:06;;;;;;;8.57;2.77;;;8.30;99.90;;;;;;5084013;28;20467;-69
2023/12/22 08:37:32;;;;;;;10.23;2.90;;;8.30;99.90;;;;;;5084297;28;20185;-70
2023/12/22 08:39:57;;;;;;;8.80;2.90;;;8.30;99.90;;;;;;5083901;28;20415;-69
2023/12/22 08:42:27;;;;;;;9.07;2.77;;;8.30;99.90;;;;;;5064522;28;20196;-71
2023/12/22 08:44:52;;;;;;;7.60;2.90;;;8.40;99.90;;;;;;5082939;28;20195;-70
2023/12/22 08:47:18;;;;;;;7.73;3.00;;;8.40;99.90;;;;;;5102111;22;21011;-71
2023/12/22 08:49:44;;;;;;;10.57;3.60;;;8.50;99.90;;;;;;5081966;28;20175;-71
2023/12/22 08:52:09;;;;;;;10.10;2.93;;;8.50;99.90;;;;;;5093633;28;20209;-72
2023/12/22 08:54:35;;;;;;;8.27;3.00;;;8.60;99.90;;;;;;5093648;28;20632;-72
2023/12/22 08:57:04;;;;;;;10.67;3.30;;;8.70;99.90;;;;;;5093572;28;20193;-71
2023/12/22 08:59:29;;;;;;;6.93;2.90;;;8.70;99.90;;;;;;5087136;28;20177;-71
2023/12/22 09:01:55;;;;;;;11.90;3.13;;;8.60;99.90;;;;;;5071953;28;20414;-71
2023/12/22 09:04:22;;;;;;;7.87;2.40;;;8.70;99.90;;;;;;5073302;28;20176;-71
2023/12/22 09:06:51;;;;;;;6.83;3.60;;;8.70;99.90;;;;;;5073167;28;20688;-72
2023/12/22 09:09:17;;;;;;;6.70;2.67;;;8.80;99.90;;;;;;5075626;28;20743;-72
2023/12/22 09:11:42;;;;;;;8.33;2.90;;;8.80;99.90;;;;;;5093558;28;20410;-72
2023/12/22 09:14:11;;;;;;;10.60;3.23;;;8.90;99.90;;;;;;5093402;28;20401;-72
2023/12/22 09:16:37;;;;;;;10.20;3.33;;;8.80;99.90;;;;;;5091625;28;20189;-72
2023/12/22 09:19:04;;;;;;;9.90;2.93;;;8.90;99.90;;;;;;5090741;28;20461;-72
2023/12/22 09:21:29;;;;;;;10.90;4.10;;;8.90;99.90;;;;;;5073298;28;20463;-72
2023/12/22 09:23:55;;;;;;;8.83;3.17;;;9.00;99.90;;;;;;5073544;28;20407;-71
2023/12/22 09:26:21;;;;;;;15.73;4.07;;;9.00;99.90;;;;;;5073057;28;20204;-72
2023/12/22 09:28:47;;;;;;;12.00;3.60;;;9.00;99.90;;;;;;5073768;28;20174;-72
2023/12/22 09:31:12;;;;;;;13.20;4.50;;;9.10;99.90;;;;;;5053145;28;20166;-72
2023/12/22 09:33:39;;;;;;;12.33;4.10;;;9.10;99.90;;;;;;5052955;28;20171;-72
2023/12/22 09:36:05;;;;;;;9.87;3.20;;;9.10;99.90;;;;;;5052979;28;20192;-72
2023/12/22 09:38:31;;;;;;;17.10;4.13;;;9.20;99.90;;;;;;5052855;28;20437;-72
2023/12/22 09:40:58;;;;;;;12.33;3.97;;;9.30;99.90;;;;;;5088595;28;20420;-72
2023/12/22 09:43:23;;;;;;;8.60;3.07;;;9.30;99.90;;;;;;5093171;28;20175;-72
2023/12/22 09:45:50;;;;;;;10.10;3.30;;;9.30;99.90;;;;;;5073985;28;20498;-72
2023/12/22 09:48:17;;;;;;;11.83;3.87;;;9.30;99.90;;;;;;5053300;28;20264;-71
2023/12/22 09:50:46;;;;;;;8.63;3.80;;;9.40;99.90;;;;;;5084719;28;20896;-71
2023/12/22 09:53:15;;;;;;;12.70;3.37;;;9.40;99.90;;;;;;5095007;28;20450;-72
2023/12/22 09:55:46;;;;;;;11.57;3.57;;;9.40;99.90;;;;;;5097743;28;20404;-71
2023/12/22 09:58:14;;;;;;;17.30;4.80;;;9.40;99.90;;;;;;5097351;28;20497;-72
2023/12/22 10:00:41;;;;;;;8.40;3.40;;;9.30;99.90;;;;;;5081851;28;20405;-71
2023/12/22 10:03:08;;;;;;;12.07;3.90;;;9.40;99.90;;;;;;5077155;28;20497;-71
2023/12/22 10:05:34;;;;;;;15.27;4.50;;;9.40;99.90;;;;;;5076962;28;20455;-73
2023/12/22 10:08:01;;;;;;;10.97;3.70;;;9.40;99.90;;;;;;5077020;28;20430;-71
2023/12/22 10:10:30;;;;;;;15.00;4.43;;;9.50;99.90;;;;;;5090256;28;20175;-70
2023/12/22 10:12:58;;;;;;;14.03;3.97;;;9.50;99.90;;;;;;5097014;28;20448;-70
2023/12/22 10:15:24;;;;;;;17.33;4.00;;;9.50;99.90;;;;;;5097009;28;20905;-70
2023/12/22 10:17:51;;;;;;;9.47;3.13;;;9.50;99.90;;;;;;5097217;28;20424;-70
2023/12/22 10:20:17;;;;;;;7.00;2.83;;;9.50;99.90;;;;;;5085363;28;20417;-70
2023/12/22 10:22:42;;;;;;;12.77;3.73;;;9.50;99.90;;;;;;5076776;28;20397;-70
2023/12/22 10:25:08;;;;;;;13.17;3.83;;;9.60;99.90;;;;;;5076704;28;20280;-70
2023/12/22 10:27:36;;;;;;;19.97;3.97;;;9.70;99.90;;;;;;5077452;28;20187;-70
2023/12/22 10:30:03;;;;;;;9.90;3.73;;;9.70;99.90;;;;;;5086609;28;20413;-70
2023/12/22 10:32:29;;;;;;;11.80;3.77;;;9.60;99.90;;;;;;5097820;28;20415;-70
2023/12/22 10:34:57;;;;;;;9.47;3.47;;;9.60;99.90;;;;;;5097411;28;20824;-69
2023/12/22 10:37:23;;;;;;;18.63;3.80;;;9.60;99.90;;;;;;5097286;28;20465;-70
2023/12/22 10:39:55;;;;;;;8.77;2.90;;;9.70;99.90;;;;;;5089915;28;20413;-70
2023/12/22 10:42:21;;;;;;;8.80;3.20;;;9.60;99.90;;;;;;5076493;28;20758;-70
2023/12/22 10:44:47;;;;;;;11.37;3.17;;;9.60;99.90;;;;;;5076987;28;20419;-70
2023/12/22 10:47:13;;;;;;;10.27;3.20;;;9.60;99.90;;;;;;5076116;28;20468;-70
2023/12/22 10:49:39;;;;;;;7.00;2.90;;;9.70;99.90;;;;;;5083065;28;20419;-70
2023/12/22 10:52:05;;;;;;;6.67;2.97;;;9.70;99.90;;;;;;5097499;28;20201;-70
2023/12/22 10:54:31;;;;;;;9.53;3.40;;;9.70;99.90;;;;;;5097454;28;20457;-69
2023/12/22 10:57:00;;;;;;;9.70;3.10;;;9.70;99.90;;;;;;5097090;28;20741;-70
2023/12/22 10:59:30;;;;;;;13.17;3.90;;;9.70;99.90;;;;;;5092570;28;20213;-70
2023/12/22 11:01:58;;;;;;;9.03;2.63;;;9.70;99.90;;;;;;5075770;28;20403;-70
2023/12/22 11:04:28;;;;;;;8.10;2.60;;;9.70;99.90;;;;;;5074889;28;20958;-70
2023/12/22 11:06:57;;;;;;;7.13;2.30;;;9.70;99.90;;;;;;5075785;28;21061;-70
2023/12/22 11:09:26;;;;;;;6.70;1.97;;;9.60;99.90;;;;;;5079133;28;20407;-70
2023/12/22 11:11:52;;;;;;;9.23;2.50;;;9.60;99.90;;;;;;5096080;28;20403;-70
2023/12/22 11:14:20;;;;;;;5.60;1.70;;;9.50;99.90;;;;;;5095781;28;20409;-70
2023/12/22 11:16:48;;;;;;;5.27;1.97;;;9.50;99.90;;;;;;5095859;28;20517;-70
2023/12/22 11:19:15;;;;;;;3.83;1.77;;;9.40;99.90;;;;;;5093690;28;20410;-69
2023/12/22 11:21:40;;;;;;;3.33;1.60;;;9.40;99.90;;;;;;5075784;28;20538;-69
2023/12/22 11:24:08;;;;;;;5.97;2.07;;;9.40;99.90;;;;;;5077207;28;20467;-70
2023/12/22 11:26:34;;;;;;;2.80;1.83;;;9.30;99.90;;;;;;5075349;28;20493;-70
2023/12/22 11:29:02;;;;;;;4.53;2.10;;;9.40;99.90;;;;;;5072692;28;20599;-70
2023/12/22 11:31:31;;;;;;;2.90;1.90;;;9.30;99.90;;;;;;5065631;28;20862;-70
2023/12/22 11:33:59;;;;;;;4.57;2.27;;;9.30;99.90;;;;;;5065605;28;21008;-70
2023/12/22 11:36:25;;;;;;;6.20;3.27;;;9.20;99.90;;;;;;5065700;28;20415;-70
2023/12/22 11:38:51;;;;;;;6.47;3.17;;;9.10;99.90;;;;;;5065650;28;21045;-69
2023/12/22 11:41:27;;;;;;;4.50;1.60;;;9.10;99.90;;;;;;5066195;28;20510;-70
2023/12/22 11:43:55;;;;;;;5.70;2.27;;;9.10;99.90;;;;;;5063253;28;20183;-70
2023/12/22 11:46:20;;;;;;;4.73;1.50;;;9.00;99.90;;;;;;5065294;28;21140;-70
2023/12/22 11:48:51;;;;;;;5.30;1.90;;;9.10;99.90;;;;;;5065113;28;20439;-71
2023/12/22 11:51:17;;;;;;;7.47;2.50;;;9.10;99.90;;;;;;5065203;28;20185;-70
2023/12/22 11:53:44;;;;;;;3.47;1.87;;;9.00;99.90;;;;;;5065301;28;20468;-70
2023/12/22 11:56:11;;;;;;;3.43;1.93;;;9.00;99.90;;;;;;5065316;28;20480;-70
2023/12/22 11:58:51;;;;;;;3.40;1.50;;;9.00;99.90;;;;;;5065130;28;20505;-70
2023/12/22 12:01:18;;;;;;;2.90;1.30;;;8.90;99.90;;;;;;5068790;28;20510;-70
2023/12/22 12:03:55;;;;;;;3.80;1.77;;;8.90;99.90;;;;;;5074660;28;20787;-70
2023/12/22 12:06:26;;;;;;;3.73;1.70;;;8.90;99.90;;;;;;5074199;28;20505;-70
2023/12/22 12:08:56;;;;;;;4.80;2.00;;;8.90;99.90;;;;;;5074338;28;20422;-69
2023/12/22 12:11:23;;;;;;;5.03;2.00;;;8.90;99.90;;;;;;5093241;28;20416;-69
2023/12/22 12:13:49;;;;;;;1.50;1.20;;;8.90;99.90;;;;;;5094391;28;20414;-69
2023/12/22 12:16:21;;;;;;;2.60;1.90;;;9.00;99.90;;;;;;5094251;28;20507;-70
2023/12/22 12:18:47;;;;;;;3.97;1.33;;;9.00;99.90;;;;;;5094438;28;20880;-70
2023/12/22 12:21:12;;;;;;;3.03;1.60;;;9.10;99.90;;;;;;5076424;28;20407;-70
2023/12/22 12:23:40;;;;;;;2.60;1.40;;;9.10;99.90;;;;;;5073741;28;20166;-70
2023/12/22 12:26:11;;;;;;;1.37;0.97;;;9.10;99.90;;;;;;5073922;28;20200;-70
2023/12/22 12:28:38;;;;;;;2.00;1.27;;;9.20;99.90;;;;;;5074132;28;20460;-69
2023/12/22 12:31:07;;;;;;;1.83;1.17;;;9.30;99.90;;;;;;5089807;28;20449;-70
2023/12/22 12:33:34;;;;;;;2.00;1.00;;;9.30;99.90;;;;;;5093530;28;20444;-69
2023/12/22 12:36:04;;;;;;;2.17;0.90;;;9.20;99.90;;;;;;5094270;28;20415;-70
2023/12/22 12:38:53;;;;;;;3.50;1.10;;;9.30;99.90;;;;;;5093861;28;20436;-70
2023/12/22 12:41:31;;;;;;;3.63;1.33;;;9.20;99.90;;;;;;5094355;28;20407;-70
2023/12/22 12:43:58;;;;;;;3.37;1.07;;;9.20;99.90;;;;;;5094046;28;20504;-69
2023/12/22 12:46:35;;;;;;;2.50;1.10;;;9.10;99.90;;;;;;5093875;28;20440;-70
2023/12/22 12:49:11;;;;;;;2.70;1.43;;;9.20;99.90;;;;;;5093792;28;20416;-70
2023/12/22 12:51:43;;;;;;;2.80;1.10;;;9.30;99.90;;;;;;5053669;28;20407;-69